sensor_id;sensor_type;location;lat;lon;timestamp;P1;durP1;ratioP1;P2;durP2;ratioP2
4448;SDS011;2237;51.870;6.160;2022-11-15T00:00:46;22.23;;;10.07;;
4448;SDS011;2237;51.870;6.160;2022-11-15T00:03:17;23.45;;;10.15;;
4448;SDS011;2237;51.870;6.160;2022-11-15T00:08:11;22.02;;;9.57;;
4448;SDS011;2237;51.870;6.160;2022-11-15T00:10:38;21.77;;;9.52;;
4448;SDS011;2237;51.870;6.160;2022-11-15T00:13:08;21.70;;;10.43;;
4448;SDS011;2237;51.870;6.160;2022-11-15T00:15:36;20.95;;;9.32;;
4448;SDS011;2237;51.870;6.160;2022-11-15T00:18:04;20.92;;;9.27;;
4448;SDS011;2237;51.870;6.160;2022-11-15T00:20:33;19.05;;;8.20;;
4448;SDS011;2237;51.870;6.160;2022-11-15T00:23:00;16.42;;;8.20;;
4448;SDS011;2237;51.870;6.160;2022-11-15T00:25:26;18.83;;;9.20;;
4448;SDS011;2237;51.870;6.160;2022-11-15T00:27:56;18.17;;;8.65;;
4448;SDS011;2237;51.870;6.160;2022-11-15T00:30:24;17.02;;;8.07;;
4448;SDS011;2237;51.870;6.160;2022-11-15T00:32:51;21.98;;;8.77;;
4448;SDS011;2237;51.870;6.160;2022-11-15T00:35:17;23.23;;;9.40;;
4448;SDS011;2237;51.870;6.160;2022-11-15T00:37:44;19.40;;;9.50;;
4448;SDS011;2237;51.870;6.160;2022-11-15T00:40:12;21.20;;;9.00;;
4448;SDS011;2237;51.870;6.160;2022-11-15T00:42:40;19.58;;;8.82;;
4448;SDS011;2237;51.870;6.160;2022-11-15T00:45:07;16.83;;;8.65;;
4448;SDS011;2237;51.870;6.160;2022-11-15T00:47:33;22.08;;;7.47;;
4448;SDS011;2237;51.870;6.160;2022-11-15T00:50:00;16.35;;;8.07;;
4448;SDS011;2237;51.870;6.160;2022-11-15T00:52:26;19.02;;;9.23;;
4448;SDS011;2237;51.870;6.160;2022-11-15T00:54:52;19.52;;;9.25;;
4448;SDS011;2237;51.870;6.160;2022-11-15T00:57:19;18.92;;;9.10;;
4448;SDS011;2237;51.870;6.160;2022-11-15T00:59:45;20.33;;;9.82;;
4448;SDS011;2237;51.870;6.160;2022-11-15T01:02:11;21.05;;;9.50;;
4448;SDS011;2237;51.870;6.160;2022-11-15T01:04:38;17.85;;;8.70;;
4448;SDS011;2237;51.870;6.160;2022-11-15T01:07:05;17.45;;;7.25;;
4448;SDS011;2237;51.870;6.160;2022-11-15T01:09:31;23.77;;;9.50;;
4448;SDS011;2237;51.870;6.160;2022-11-15T01:11:57;22.83;;;9.30;;
4448;SDS011;2237;51.870;6.160;2022-11-15T01:14:24;18.85;;;9.52;;
4448;SDS011;2237;51.870;6.160;2022-11-15T01:16:51;20.05;;;8.63;;
4448;SDS011;2237;51.870;6.160;2022-11-15T01:19:17;19.52;;;10.00;;
4448;SDS011;2237;51.870;6.160;2022-11-15T01:21:43;27.65;;;10.25;;
4448;SDS011;2237;51.870;6.160;2022-11-15T01:24:13;18.63;;;9.63;;
4448;SDS011;2237;51.870;6.160;2022-11-15T01:26:39;19.63;;;9.55;;
4448;SDS011;2237;51.870;6.160;2022-11-15T01:29:05;21.95;;;10.32;;
4448;SDS011;2237;51.870;6.160;2022-11-15T01:31:32;22.42;;;9.27;;
4448;SDS011;2237;51.870;6.160;2022-11-15T01:33:58;21.80;;;10.18;;
4448;SDS011;2237;51.870;6.160;2022-11-15T01:36:24;23.25;;;9.95;;
4448;SDS011;2237;51.870;6.160;2022-11-15T01:38:54;21.52;;;10.20;;
4448;SDS011;2237;51.870;6.160;2022-11-15T01:41:24;26.08;;;10.07;;
4448;SDS011;2237;51.870;6.160;2022-11-15T01:43:53;22.67;;;9.82;;
4448;SDS011;2237;51.870;6.160;2022-11-15T01:48:51;25.92;;;10.88;;
4448;SDS011;2237;51.870;6.160;2022-11-15T01:51:21;24.05;;;11.48;;
4448;SDS011;2237;51.870;6.160;2022-11-15T01:53:50;18.50;;;9.77;;
4448;SDS011;2237;51.870;6.160;2022-11-15T01:58:49;23.40;;;10.05;;
4448;SDS011;2237;51.870;6.160;2022-11-15T02:01:17;21.10;;;9.48;;
4448;SDS011;2237;51.870;6.160;2022-11-15T02:03:56;20.38;;;9.80;;
4448;SDS011;2237;51.870;6.160;2022-11-15T02:06:25;18.85;;;9.57;;
4448;SDS011;2237;51.870;6.160;2022-11-15T02:08:51;18.05;;;9.88;;
4448;SDS011;2237;51.870;6.160;2022-11-15T02:11:18;23.88;;;10.35;;
4448;SDS011;2237;51.870;6.160;2022-11-15T02:13:44;21.13;;;9.68;;
4448;SDS011;2237;51.870;6.160;2022-11-15T02:19:22;24.60;;;10.07;;
4448;SDS011;2237;51.870;6.160;2022-11-15T02:22:21;19.67;;;9.73;;
4448;SDS011;2237;51.870;6.160;2022-11-15T02:25:10;18.50;;;9.68;;
4448;SDS011;2237;51.870;6.160;2022-11-15T02:31:03;21.00;;;9.48;;
4448;SDS011;2237;51.870;6.160;2022-11-15T02:33:49;17.55;;;8.93;;
4448;SDS011;2237;51.870;6.160;2022-11-15T02:36:47;19.83;;;9.57;;
4448;SDS011;2237;51.870;6.160;2022-11-15T02:39:41;21.45;;;9.85;;
4448;SDS011;2237;51.870;6.160;2022-11-15T02:42:17;20.00;;;8.45;;
4448;SDS011;2237;51.870;6.160;2022-11-15T02:45:07;19.83;;;10.55;;
4448;SDS011;2237;51.870;6.160;2022-11-15T02:47:41;18.55;;;9.68;;
4448;SDS011;2237;51.870;6.160;2022-11-15T02:50:10;20.17;;;9.30;;
4448;SDS011;2237;51.870;6.160;2022-11-15T02:52:40;18.58;;;10.27;;
4448;SDS011;2237;51.870;6.160;2022-11-15T02:55:24;18.42;;;8.82;;
4448;SDS011;2237;51.870;6.160;2022-11-15T03:00:58;18.98;;;9.52;;
4448;SDS011;2237;51.870;6.160;2022-11-15T03:06:12;17.42;;;9.20;;
4448;SDS011;2237;51.870;6.160;2022-11-15T03:08:58;17.85;;;9.20;;
4448;SDS011;2237;51.870;6.160;2022-11-15T03:11:32;21.05;;;8.75;;
4448;SDS011;2237;51.870;6.160;2022-11-15T03:16:43;18.30;;;9.23;;
4448;SDS011;2237;51.870;6.160;2022-11-15T03:21:59;24.83;;;10.00;;
4448;SDS011;2237;51.870;6.160;2022-11-15T03:24:28;17.98;;;8.82;;
4448;SDS011;2237;51.870;6.160;2022-11-15T03:26:57;21.30;;;9.90;;
4448;SDS011;2237;51.870;6.160;2022-11-15T03:29:28;20.67;;;8.38;;
4448;SDS011;2237;51.870;6.160;2022-11-15T03:32:00;21.92;;;9.27;;
4448;SDS011;2237;51.870;6.160;2022-11-15T03:34:46;21.00;;;9.90;;
4448;SDS011;2237;51.870;6.160;2022-11-15T03:37:15;18.77;;;9.68;;
4448;SDS011;2237;51.870;6.160;2022-11-15T03:39:43;23.63;;;9.75;;
4448;SDS011;2237;51.870;6.160;2022-11-15T03:42:26;20.27;;;9.88;;
4448;SDS011;2237;51.870;6.160;2022-11-15T03:45:13;20.95;;;9.95;;
4448;SDS011;2237;51.870;6.160;2022-11-15T03:47:53;21.85;;;9.30;;
4448;SDS011;2237;51.870;6.160;2022-11-15T03:50:38;16.75;;;8.98;;
4448;SDS011;2237;51.870;6.160;2022-11-15T03:53:07;21.25;;;10.50;;
4448;SDS011;2237;51.870;6.160;2022-11-15T03:55:34;24.35;;;10.02;;
4448;SDS011;2237;51.870;6.160;2022-11-15T03:58:00;19.60;;;10.13;;
4448;SDS011;2237;51.870;6.160;2022-11-15T04:00:27;22.58;;;10.20;;
4448;SDS011;2237;51.870;6.160;2022-11-15T04:02:54;18.77;;;9.55;;
4448;SDS011;2237;51.870;6.160;2022-11-15T04:05:21;18.38;;;9.00;;
4448;SDS011;2237;51.870;6.160;2022-11-15T04:07:47;20.30;;;9.93;;
4448;SDS011;2237;51.870;6.160;2022-11-15T04:10:14;19.73;;;9.80;;
4448;SDS011;2237;51.870;6.160;2022-11-15T04:12:44;20.17;;;9.90;;
4448;SDS011;2237;51.870;6.160;2022-11-15T04:15:16;20.33;;;10.82;;
4448;SDS011;2237;51.870;6.160;2022-11-15T04:23:02;23.10;;;10.50;;
4448;SDS011;2237;51.870;6.160;2022-11-15T04:26:04;21.05;;;10.93;;
4448;SDS011;2237;51.870;6.160;2022-11-15T04:28:40;19.50;;;10.07;;
4448;SDS011;2237;51.870;6.160;2022-11-15T04:31:26;22.80;;;10.88;;
4448;SDS011;2237;51.870;6.160;2022-11-15T04:33:54;19.42;;;9.80;;
4448;SDS011;2237;51.870;6.160;2022-11-15T04:36:20;18.05;;;10.07;;
4448;SDS011;2237;51.870;6.160;2022-11-15T04:39:06;22.20;;;10.23;;
4448;SDS011;2237;51.870;6.160;2022-11-15T04:41:32;23.65;;;10.20;;
4448;SDS011;2237;51.870;6.160;2022-11-15T04:43:59;20.85;;;10.43;;
4448;SDS011;2237;51.870;6.160;2022-11-15T04:46:25;22.63;;;9.95;;
4448;SDS011;2237;51.870;6.160;2022-11-15T04:48:52;18.77;;;9.70;;
4448;SDS011;2237;51.870;6.160;2022-11-15T04:51:23;21.00;;;9.77;;
4448;SDS011;2237;51.870;6.160;2022-11-15T04:53:50;20.17;;;10.13;;
4448;SDS011;2237;51.870;6.160;2022-11-15T04:56:16;19.42;;;9.45;;
4448;SDS011;2237;51.870;6.160;2022-11-15T04:58:42;22.20;;;9.38;;
4448;SDS011;2237;51.870;6.160;2022-11-15T05:01:13;23.10;;;10.25;;
4448;SDS011;2237;51.870;6.160;2022-11-15T05:03:41;26.02;;;10.60;;
4448;SDS011;2237;51.870;6.160;2022-11-15T05:06:26;22.48;;;10.32;;
4448;SDS011;2237;51.870;6.160;2022-11-15T05:08:53;22.38;;;10.32;;
4448;SDS011;2237;51.870;6.160;2022-11-15T05:11:20;24.38;;;10.15;;
4448;SDS011;2237;51.870;6.160;2022-11-15T05:13:46;21.10;;;10.40;;
4448;SDS011;2237;51.870;6.160;2022-11-15T05:16:13;20.27;;;9.77;;
4448;SDS011;2237;51.870;6.160;2022-11-15T05:18:40;23.00;;;10.23;;
4448;SDS011;2237;51.870;6.160;2022-11-15T05:21:08;19.85;;;9.95;;
4448;SDS011;2237;51.870;6.160;2022-11-15T05:23:40;19.02;;;9.80;;
4448;SDS011;2237;51.870;6.160;2022-11-15T05:26:07;19.75;;;9.68;;
4448;SDS011;2237;51.870;6.160;2022-11-15T05:28:35;18.23;;;8.95;;
4448;SDS011;2237;51.870;6.160;2022-11-15T05:31:06;17.40;;;9.25;;
4448;SDS011;2237;51.870;6.160;2022-11-15T05:33:38;19.20;;;8.98;;
4448;SDS011;2237;51.870;6.160;2022-11-15T05:36:14;17.67;;;9.45;;
4448;SDS011;2237;51.870;6.160;2022-11-15T05:38:46;15.65;;;8.98;;
4448;SDS011;2237;51.870;6.160;2022-11-15T05:41:14;21.85;;;10.10;;
4448;SDS011;2237;51.870;6.160;2022-11-15T05:43:45;22.58;;;9.40;;
4448;SDS011;2237;51.870;6.160;2022-11-15T05:46:15;19.73;;;8.98;;
4448;SDS011;2237;51.870;6.160;2022-11-15T05:48:43;19.02;;;9.25;;
4448;SDS011;2237;51.870;6.160;2022-11-15T05:51:13;23.90;;;9.68;;
4448;SDS011;2237;51.870;6.160;2022-11-15T05:53:41;21.10;;;9.65;;
4448;SDS011;2237;51.870;6.160;2022-11-15T05:56:07;18.67;;;9.15;;
4448;SDS011;2237;51.870;6.160;2022-11-15T05:58:35;18.60;;;9.02;;
4448;SDS011;2237;51.870;6.160;2022-11-15T06:01:02;21.80;;;8.93;;
4448;SDS011;2237;51.870;6.160;2022-11-15T06:03:29;19.20;;;9.25;;
4448;SDS011;2237;51.870;6.160;2022-11-15T06:05:56;17.15;;;9.10;;
4448;SDS011;2237;51.870;6.160;2022-11-15T06:08:22;20.33;;;9.75;;
4448;SDS011;2237;51.870;6.160;2022-11-15T06:10:49;17.10;;;9.20;;
4448;SDS011;2237;51.870;6.160;2022-11-15T06:13:15;19.08;;;9.95;;
4448;SDS011;2237;51.870;6.160;2022-11-15T06:15:41;14.90;;;8.50;;
4448;SDS011;2237;51.870;6.160;2022-11-15T06:18:08;24.15;;;9.43;;
4448;SDS011;2237;51.870;6.160;2022-11-15T06:20:34;16.80;;;8.57;;
4448;SDS011;2237;51.870;6.160;2022-11-15T06:23:01;19.58;;;9.45;;
4448;SDS011;2237;51.870;6.160;2022-11-15T06:25:30;18.55;;;8.82;;
4448;SDS011;2237;51.870;6.160;2022-11-15T06:27:57;18.90;;;8.98;;
4448;SDS011;2237;51.870;6.160;2022-11-15T06:30:25;17.42;;;8.95;;
4448;SDS011;2237;51.870;6.160;2022-11-15T06:32:58;16.10;;;9.32;;
4448;SDS011;2237;51.870;6.160;2022-11-15T06:35:26;18.25;;;8.88;;
4448;SDS011;2237;51.870;6.160;2022-11-15T06:37:53;21.02;;;9.98;;
4448;SDS011;2237;51.870;6.160;2022-11-15T06:40:19;19.10;;;9.75;;
4448;SDS011;2237;51.870;6.160;2022-11-15T06:42:45;20.90;;;8.60;;
4448;SDS011;2237;51.870;6.160;2022-11-15T06:45:12;19.63;;;9.10;;
4448;SDS011;2237;51.870;6.160;2022-11-15T06:47:45;19.55;;;10.10;;
4448;SDS011;2237;51.870;6.160;2022-11-15T06:50:12;19.17;;;9.38;;
4448;SDS011;2237;51.870;6.160;2022-11-15T06:52:39;20.88;;;9.70;;
4448;SDS011;2237;51.870;6.160;2022-11-15T06:55:05;20.52;;;10.45;;
4448;SDS011;2237;51.870;6.160;2022-11-15T06:57:32;22.30;;;9.88;;
4448;SDS011;2237;51.870;6.160;2022-11-15T06:59:59;17.80;;;9.23;;
4448;SDS011;2237;51.870;6.160;2022-11-15T07:02:25;20.45;;;9.35;;
4448;SDS011;2237;51.870;6.160;2022-11-15T07:04:52;17.35;;;9.68;;
4448;SDS011;2237;51.870;6.160;2022-11-15T07:07:18;21.42;;;10.63;;
4448;SDS011;2237;51.870;6.160;2022-11-15T07:09:45;20.88;;;9.93;;
4448;SDS011;2237;51.870;6.160;2022-11-15T07:12:11;19.42;;;9.80;;
4448;SDS011;2237;51.870;6.160;2022-11-15T07:14:37;17.45;;;9.45;;
4448;SDS011;2237;51.870;6.160;2022-11-15T07:17:04;21.65;;;10.27;;
4448;SDS011;2237;51.870;6.160;2022-11-15T07:19:31;18.73;;;9.43;;
4448;SDS011;2237;51.870;6.160;2022-11-15T07:22:01;19.75;;;10.02;;
4448;SDS011;2237;51.870;6.160;2022-11-15T07:24:27;27.50;;;10.73;;
4448;SDS011;2237;51.870;6.160;2022-11-15T07:26:54;22.77;;;10.45;;
4448;SDS011;2237;51.870;6.160;2022-11-15T07:29:20;22.30;;;10.95;;
4448;SDS011;2237;51.870;6.160;2022-11-15T07:31:46;22.65;;;11.32;;
4448;SDS011;2237;51.870;6.160;2022-11-15T07:34:14;24.95;;;10.98;;
4448;SDS011;2237;51.870;6.160;2022-11-15T07:36:40;26.13;;;11.82;;
4448;SDS011;2237;51.870;6.160;2022-11-15T07:39:06;23.50;;;12.25;;
4448;SDS011;2237;51.870;6.160;2022-11-15T07:41:33;28.40;;;12.25;;
4448;SDS011;2237;51.870;6.160;2022-11-15T07:43:59;20.15;;;9.95;;
4448;SDS011;2237;51.870;6.160;2022-11-15T07:46:26;21.73;;;10.38;;
4448;SDS011;2237;51.870;6.160;2022-11-15T07:48:52;20.17;;;9.18;;
4448;SDS011;2237;51.870;6.160;2022-11-15T07:51:19;21.52;;;9.50;;
4448;SDS011;2237;51.870;6.160;2022-11-15T07:53:46;19.05;;;9.10;;
4448;SDS011;2237;51.870;6.160;2022-11-15T07:56:12;18.20;;;8.70;;
4448;SDS011;2237;51.870;6.160;2022-11-15T07:58:39;14.48;;;7.07;;
4448;SDS011;2237;51.870;6.160;2022-11-15T08:01:06;14.60;;;7.35;;
4448;SDS011;2237;51.870;6.160;2022-11-15T08:03:34;14.25;;;6.20;;
4448;SDS011;2237;51.870;6.160;2022-11-15T08:06:01;12.38;;;5.78;;
4448;SDS011;2237;51.870;6.160;2022-11-15T08:08:28;11.40;;;6.00;;
4448;SDS011;2237;51.870;6.160;2022-11-15T08:10:54;9.30;;;4.80;;
4448;SDS011;2237;51.870;6.160;2022-11-15T08:13:23;9.23;;;5.07;;
4448;SDS011;2237;51.870;6.160;2022-11-15T08:15:50;10.77;;;5.40;;
4448;SDS011;2237;51.870;6.160;2022-11-15T08:18:22;15.35;;;6.00;;
4448;SDS011;2237;51.870;6.160;2022-11-15T08:20:49;11.43;;;5.97;;
4448;SDS011;2237;51.870;6.160;2022-11-15T08:23:15;13.32;;;5.30;;
4448;SDS011;2237;51.870;6.160;2022-11-15T08:25:42;11.27;;;5.47;;
4448;SDS011;2237;51.870;6.160;2022-11-15T08:28:09;11.20;;;4.30;;
4448;SDS011;2237;51.870;6.160;2022-11-15T08:30:37;10.35;;;4.60;;
4448;SDS011;2237;51.870;6.160;2022-11-15T08:35:35;11.02;;;5.43;;
4448;SDS011;2237;51.870;6.160;2022-11-15T08:38:02;12.00;;;5.45;;
4448;SDS011;2237;51.870;6.160;2022-11-15T08:40:29;10.48;;;5.30;;
4448;SDS011;2237;51.870;6.160;2022-11-15T08:42:55;9.93;;;5.78;;
4448;SDS011;2237;51.870;6.160;2022-11-15T08:45:21;12.85;;;5.13;;
4448;SDS011;2237;51.870;6.160;2022-11-15T08:47:48;10.30;;;4.95;;
4448;SDS011;2237;51.870;6.160;2022-11-15T08:50:19;12.32;;;5.18;;
4448;SDS011;2237;51.870;6.160;2022-11-15T08:52:46;9.15;;;5.03;;
4448;SDS011;2237;51.870;6.160;2022-11-15T08:55:14;12.32;;;5.15;;
4448;SDS011;2237;51.870;6.160;2022-11-15T08:57:42;7.93;;;4.47;;
4448;SDS011;2237;51.870;6.160;2022-11-15T09:00:09;10.40;;;4.50;;
4448;SDS011;2237;51.870;6.160;2022-11-15T09:02:38;8.70;;;4.45;;
4448;SDS011;2237;51.870;6.160;2022-11-15T09:05:05;7.90;;;4.15;;
4448;SDS011;2237;51.870;6.160;2022-11-15T09:07:32;8.93;;;4.32;;
4448;SDS011;2237;51.870;6.160;2022-11-15T09:09:58;8.98;;;5.00;;
4448;SDS011;2237;51.870;6.160;2022-11-15T09:12:25;11.15;;;4.63;;
4448;SDS011;2237;51.870;6.160;2022-11-15T09:14:51;8.30;;;4.47;;
4448;SDS011;2237;51.870;6.160;2022-11-15T09:17:18;9.95;;;4.28;;
4448;SDS011;2237;51.870;6.160;2022-11-15T09:19:50;8.75;;;4.35;;
4448;SDS011;2237;51.870;6.160;2022-11-15T09:22:16;9.05;;;4.57;;
4448;SDS011;2237;51.870;6.160;2022-11-15T09:24:42;9.45;;;4.72;;
4448;SDS011;2237;51.870;6.160;2022-11-15T09:27:09;10.85;;;4.40;;
4448;SDS011;2237;51.870;6.160;2022-11-15T09:29:35;7.88;;;3.85;;
4448;SDS011;2237;51.870;6.160;2022-11-15T09:32:02;10.98;;;4.85;;
4448;SDS011;2237;51.870;6.160;2022-11-15T09:34:28;9.00;;;4.20;;
4448;SDS011;2237;51.870;6.160;2022-11-15T09:36:55;9.55;;;3.97;;
4448;SDS011;2237;51.870;6.160;2022-11-15T09:39:21;11.65;;;6.28;;
4448;SDS011;2237;51.870;6.160;2022-11-15T09:41:50;7.95;;;4.55;;
4448;SDS011;2237;51.870;6.160;2022-11-15T09:50:25;6.75;;;3.88;;
4448;SDS011;2237;51.870;6.160;2022-11-15T09:53:14;7.13;;;3.58;;
4448;SDS011;2237;51.870;6.160;2022-11-15T09:56:14;5.72;;;3.38;;
4448;SDS011;2237;51.870;6.160;2022-11-15T10:01:19;8.65;;;4.10;;
4448;SDS011;2237;51.870;6.160;2022-11-15T10:04:00;7.72;;;4.13;;
4448;SDS011;2237;51.870;6.160;2022-11-15T10:06:27;8.65;;;3.65;;
4448;SDS011;2237;51.870;6.160;2022-11-15T10:11:31;8.55;;;3.30;;
4448;SDS011;2237;51.870;6.160;2022-11-15T10:14:22;5.38;;;2.70;;
4448;SDS011;2237;51.870;6.160;2022-11-15T10:22:24;6.28;;;2.30;;
4448;SDS011;2237;51.870;6.160;2022-11-15T10:25:12;5.05;;;2.67;;
4448;SDS011;2237;51.870;6.160;2022-11-15T10:27:40;6.35;;;2.60;;
4448;SDS011;2237;51.870;6.160;2022-11-15T10:30:11;4.95;;;2.08;;
4448;SDS011;2237;51.870;6.160;2022-11-15T10:32:41;5.22;;;2.20;;
4448;SDS011;2237;51.870;6.160;2022-11-15T10:35:16;2.75;;;1.50;;
4448;SDS011;2237;51.870;6.160;2022-11-15T10:38:07;4.68;;;1.85;;
4448;SDS011;2237;51.870;6.160;2022-11-15T10:40:35;6.07;;;1.92;;
4448;SDS011;2237;51.870;6.160;2022-11-15T10:45:35;4.85;;;1.65;;
4448;SDS011;2237;51.870;6.160;2022-11-15T10:50:39;2.83;;;1.75;;
4448;SDS011;2237;51.870;6.160;2022-11-15T10:53:23;3.25;;;1.55;;
4448;SDS011;2237;51.870;6.160;2022-11-15T10:55:51;5.00;;;1.70;;
4448;SDS011;2237;51.870;6.160;2022-11-15T10:58:37;2.75;;;1.50;;
4448;SDS011;2237;51.870;6.160;2022-11-15T11:01:11;2.88;;;1.30;;
4448;SDS011;2237;51.870;6.160;2022-11-15T11:03:44;3.65;;;1.30;;
4448;SDS011;2237;51.870;6.160;2022-11-15T11:06:23;2.80;;;1.50;;
4448;SDS011;2237;51.870;6.160;2022-11-15T11:08:53;3.65;;;1.30;;
4448;SDS011;2237;51.870;6.160;2022-11-15T11:11:23;3.85;;;1.38;;
4448;SDS011;2237;51.870;6.160;2022-11-15T11:13:50;2.40;;;1.20;;
4448;SDS011;2237;51.870;6.160;2022-11-15T11:19:31;5.00;;;1.52;;
4448;SDS011;2237;51.870;6.160;2022-11-15T11:22:46;3.75;;;1.10;;
4448;SDS011;2237;51.870;6.160;2022-11-15T11:25:04;3.15;;;0.88;;
4448;SDS011;2237;51.870;6.160;2022-11-15T11:33:31;3.40;;;0.70;;
4448;SDS011;2237;51.870;6.160;2022-11-15T11:37:04;2.03;;;0.60;;
4448;SDS011;2237;51.870;6.160;2022-11-15T11:39:20;2.58;;;0.50;;
4448;SDS011;2237;51.870;6.160;2022-11-15T11:42:04;1.48;;;0.52;;
4448;SDS011;2237;51.870;6.160;2022-11-15T11:47:31;1.98;;;0.70;;
4448;SDS011;2237;51.870;6.160;2022-11-15T11:50:17;4.10;;;0.63;;
4448;SDS011;2237;51.870;6.160;2022-11-15T11:52:56;5.65;;;0.68;;
4448;SDS011;2237;51.870;6.160;2022-11-15T11:55:43;2.13;;;0.60;;
4448;SDS011;2237;51.870;6.160;2022-11-15T11:58:19;2.13;;;0.75;;
4448;SDS011;2237;51.870;6.160;2022-11-15T12:00:51;1.70;;;0.60;;
4448;SDS011;2237;51.870;6.160;2022-11-15T12:06:02;2.80;;;0.60;;
4448;SDS011;2237;51.870;6.160;2022-11-15T12:11:09;1.65;;;0.70;;
4448;SDS011;2237;51.870;6.160;2022-11-15T12:13:40;1.80;;;0.75;;
4448;SDS011;2237;51.870;6.160;2022-11-15T12:16:13;6.10;;;0.68;;
4448;SDS011;2237;51.870;6.160;2022-11-15T12:18:44;1.20;;;0.68;;
4448;SDS011;2237;51.870;6.160;2022-11-15T12:21:28;2.13;;;0.77;;
4448;SDS011;2237;51.870;6.160;2022-11-15T12:24:12;4.25;;;0.57;;
4448;SDS011;2237;51.870;6.160;2022-11-15T12:26:54;1.10;;;0.40;;
4448;SDS011;2237;51.870;6.160;2022-11-15T12:31:57;5.70;;;0.70;;
4448;SDS011;2237;51.870;6.160;2022-11-15T12:36:55;2.33;;;0.55;;
4448;SDS011;2237;51.870;6.160;2022-11-15T12:39:21;0.93;;;0.50;;
4448;SDS011;2237;51.870;6.160;2022-11-15T12:42:39;3.05;;;2.40;;
4448;SDS011;2237;51.870;6.160;2022-11-15T12:45:27;0.77;;;0.50;;
4448;SDS011;2237;51.870;6.160;2022-11-15T12:51:15;1.50;;;0.60;;
4448;SDS011;2237;51.870;6.160;2022-11-15T12:53:34;1.08;;;0.30;;
4448;SDS011;2237;51.870;6.160;2022-11-15T13:06:51;3.13;;;0.70;;
4448;SDS011;2237;51.870;6.160;2022-11-15T13:11:58;2.45;;;0.43;;
4448;SDS011;2237;51.870;6.160;2022-11-15T13:19:49;1.75;;;0.40;;
4448;SDS011;2237;51.870;6.160;2022-11-15T13:22:23;2.00;;;0.50;;
4448;SDS011;2237;51.870;6.160;2022-11-15T13:25:14;0.88;;;0.47;;
4448;SDS011;2237;51.870;6.160;2022-11-15T13:27:46;0.98;;;0.50;;
4448;SDS011;2237;51.870;6.160;2022-11-15T13:30:25;2.97;;;0.80;;
4448;SDS011;2237;51.870;6.160;2022-11-15T13:32:58;2.50;;;0.77;;
4448;SDS011;2237;51.870;6.160;2022-11-15T13:35:33;3.72;;;0.60;;
4448;SDS011;2237;51.870;6.160;2022-11-15T13:38:06;3.03;;;0.40;;
4448;SDS011;2237;51.870;6.160;2022-11-15T13:40:36;2.72;;;0.60;;
4448;SDS011;2237;51.870;6.160;2022-11-15T13:48:43;1.95;;;0.57;;
4448;SDS011;2237;51.870;6.160;2022-11-15T13:53:44;1.33;;;0.57;;
4448;SDS011;2237;51.870;6.160;2022-11-15T13:56:15;1.48;;;0.47;;
4448;SDS011;2237;51.870;6.160;2022-11-15T13:58:44;2.22;;;0.57;;
4448;SDS011;2237;51.870;6.160;2022-11-15T14:01:14;2.13;;;0.73;;
4448;SDS011;2237;51.870;6.160;2022-11-15T14:03:49;1.17;;;0.40;;
4448;SDS011;2237;51.870;6.160;2022-11-15T14:06:20;2.08;;;0.40;;
4448;SDS011;2237;51.870;6.160;2022-11-15T14:08:58;2.33;;;0.52;;
4448;SDS011;2237;51.870;6.160;2022-11-15T14:11:35;1.77;;;0.50;;
4448;SDS011;2237;51.870;6.160;2022-11-15T14:16:32;2.67;;;0.65;;
4448;SDS011;2237;51.870;6.160;2022-11-15T14:19:11;1.73;;;0.45;;
4448;SDS011;2237;51.870;6.160;2022-11-15T14:25:05;1.75;;;0.80;;
4448;SDS011;2237;51.870;6.160;2022-11-15T14:27:32;0.98;;;0.40;;
4448;SDS011;2237;51.870;6.160;2022-11-15T14:29:59;4.03;;;0.63;;
4448;SDS011;2237;51.870;6.160;2022-11-15T14:32:30;2.30;;;0.60;;
4448;SDS011;2237;51.870;6.160;2022-11-15T14:35:09;3.47;;;0.90;;
4448;SDS011;2237;51.870;6.160;2022-11-15T14:37:40;2.97;;;0.60;;
4448;SDS011;2237;51.870;6.160;2022-11-15T14:40:08;3.10;;;0.80;;
4448;SDS011;2237;51.870;6.160;2022-11-15T14:45:09;1.70;;;0.50;;
4448;SDS011;2237;51.870;6.160;2022-11-15T14:47:38;1.42;;;0.50;;
4448;SDS011;2237;51.870;6.160;2022-11-15T14:50:05;4.25;;;0.60;;
4448;SDS011;2237;51.870;6.160;2022-11-15T14:52:32;1.20;;;0.47;;
4448;SDS011;2237;51.870;6.160;2022-11-15T14:55:02;5.15;;;1.95;;
4448;SDS011;2237;51.870;6.160;2022-11-15T14:57:30;1.90;;;0.70;;
4448;SDS011;2237;51.870;6.160;2022-11-15T14:59:56;3.22;;;0.95;;
4448;SDS011;2237;51.870;6.160;2022-11-15T15:02:23;5.95;;;0.70;;
4448;SDS011;2237;51.870;6.160;2022-11-15T15:04:51;1.88;;;0.60;;
4448;SDS011;2237;51.870;6.160;2022-11-15T15:07:18;2.75;;;0.57;;
4448;SDS011;2237;51.870;6.160;2022-11-15T15:09:45;3.15;;;0.75;;
4448;SDS011;2237;51.870;6.160;2022-11-15T15:12:14;3.15;;;0.70;;
4448;SDS011;2237;51.870;6.160;2022-11-15T15:14:50;2.20;;;0.77;;
4448;SDS011;2237;51.870;6.160;2022-11-15T15:17:16;2.22;;;0.90;;
4448;SDS011;2237;51.870;6.160;2022-11-15T15:19:43;2.90;;;0.70;;
4448;SDS011;2237;51.870;6.160;2022-11-15T15:22:19;3.17;;;0.98;;
4448;SDS011;2237;51.870;6.160;2022-11-15T15:24:48;1.65;;;0.68;;
4448;SDS011;2237;51.870;6.160;2022-11-15T15:27:14;5.18;;;0.85;;
4448;SDS011;2237;51.870;6.160;2022-11-15T15:29:41;1.70;;;0.63;;
4448;SDS011;2237;51.870;6.160;2022-11-15T15:32:08;4.63;;;1.00;;
4448;SDS011;2237;51.870;6.160;2022-11-15T15:34:35;1.23;;;0.40;;
4448;SDS011;2237;51.870;6.160;2022-11-15T15:37:22;4.60;;;0.77;;
4448;SDS011;2237;51.870;6.160;2022-11-15T15:39:53;5.30;;;0.90;;
4448;SDS011;2237;51.870;6.160;2022-11-15T15:42:22;4.45;;;0.95;;
4448;SDS011;2237;51.870;6.160;2022-11-15T15:44:49;3.45;;;0.70;;
4448;SDS011;2237;51.870;6.160;2022-11-15T15:47:20;2.45;;;0.65;;
4448;SDS011;2237;51.870;6.160;2022-11-15T15:49:49;4.68;;;0.90;;
4448;SDS011;2237;51.870;6.160;2022-11-15T15:52:16;2.15;;;0.73;;
4448;SDS011;2237;51.870;6.160;2022-11-15T15:54:43;2.63;;;0.70;;
4448;SDS011;2237;51.870;6.160;2022-11-15T15:57:11;4.95;;;0.70;;
4448;SDS011;2237;51.870;6.160;2022-11-15T15:59:39;2.72;;;0.95;;
4448;SDS011;2237;51.870;6.160;2022-11-15T16:02:05;5.65;;;0.77;;
4448;SDS011;2237;51.870;6.160;2022-11-15T16:04:32;3.67;;;0.60;;
4448;SDS011;2237;51.870;6.160;2022-11-15T16:06:59;5.60;;;0.80;;
4448;SDS011;2237;51.870;6.160;2022-11-15T16:09:26;3.15;;;0.90;;
4448;SDS011;2237;51.870;6.160;2022-11-15T16:12:11;5.55;;;0.60;;
4448;SDS011;2237;51.870;6.160;2022-11-15T16:14:38;1.75;;;0.50;;
4448;SDS011;2237;51.870;6.160;2022-11-15T16:17:04;2.42;;;0.70;;
4448;SDS011;2237;51.870;6.160;2022-11-15T16:19:31;4.05;;;1.08;;
4448;SDS011;2237;51.870;6.160;2022-11-15T16:21:57;2.38;;;0.80;;
4448;SDS011;2237;51.870;6.160;2022-11-15T16:24:23;2.78;;;0.90;;
4448;SDS011;2237;51.870;6.160;2022-11-15T16:26:50;4.88;;;1.17;;
4448;SDS011;2237;51.870;6.160;2022-11-15T16:29:17;5.47;;;0.80;;
4448;SDS011;2237;51.870;6.160;2022-11-15T16:31:43;2.42;;;1.00;;
4448;SDS011;2237;51.870;6.160;2022-11-15T16:34:10;2.45;;;0.68;;
4448;SDS011;2237;51.870;6.160;2022-11-15T16:36:36;1.75;;;0.65;;
4448;SDS011;2237;51.870;6.160;2022-11-15T16:39:03;5.28;;;1.20;;
4448;SDS011;2237;51.870;6.160;2022-11-15T16:41:30;7.22;;;1.13;;
4448;SDS011;2237;51.870;6.160;2022-11-15T16:43:56;2.83;;;0.98;;
4448;SDS011;2237;51.870;6.160;2022-11-15T16:46:23;3.15;;;0.90;;
4448;SDS011;2237;51.870;6.160;2022-11-15T16:48:53;1.98;;;1.00;;
4448;SDS011;2237;51.870;6.160;2022-11-15T16:51:19;6.38;;;1.55;;
4448;SDS011;2237;51.870;6.160;2022-11-15T16:53:46;3.60;;;1.30;;
4448;SDS011;2237;51.870;6.160;2022-11-15T16:56:25;3.63;;;1.40;;
4448;SDS011;2237;51.870;6.160;2022-11-15T16:58:56;3.90;;;0.82;;
4448;SDS011;2237;51.870;6.160;2022-11-15T17:01:27;3.25;;;1.10;;
4448;SDS011;2237;51.870;6.160;2022-11-15T17:03:56;3.40;;;1.52;;
4448;SDS011;2237;51.870;6.160;2022-11-15T17:06:24;2.53;;;1.38;;
4448;SDS011;2237;51.870;6.160;2022-11-15T17:08:51;5.07;;;1.50;;
4448;SDS011;2237;51.870;6.160;2022-11-15T17:11:18;3.83;;;1.38;;
4448;SDS011;2237;51.870;6.160;2022-11-15T17:13:46;4.78;;;1.27;;
4448;SDS011;2237;51.870;6.160;2022-11-15T17:16:15;6.18;;;1.65;;
4448;SDS011;2237;51.870;6.160;2022-11-15T17:18:43;2.40;;;1.30;;
4448;SDS011;2237;51.870;6.160;2022-11-15T17:21:13;8.10;;;1.83;;